createdAt,value
2017-08-05T00:00:04.737Z,21.70
2017-08-05T00:02:32.299Z,21.60
2017-08-05T00:04:59.879Z,21.60
2017-08-05T00:07:28.212Z,21.60
2017-08-05T00:09:55.788Z,21.60
2017-08-05T00:12:23.383Z,21.60
2017-08-05T00:14:50.962Z,21.60
2017-08-05T00:17:18.870Z,21.60
2017-08-05T00:19:46.503Z,21.60
2017-08-05T00:22:14.073Z,21.60
2017-08-05T00:24:41.664Z,21.60
2017-08-05T00:27:10.006Z,21.60
2017-08-05T00:29:37.609Z,21.60
2017-08-05T00:32:05.960Z,21.50
2017-08-05T00:34:33.830Z,21.50
2017-08-05T00:37:01.404Z,21.50
2017-08-05T00:39:29.739Z,21.50
2017-08-05T00:41:57.335Z,21.50
2017-08-05T00:44:24.917Z,21.50
2017-08-05T00:46:53.261Z,21.40
2017-08-05T00:49:20.833Z,21.40
2017-08-05T00:51:48.692Z,21.40
2017-08-05T00:54:16.263Z,21.30
2017-08-05T00:56:43.833Z,21.30
2017-08-05T00:59:11.413Z,21.30
2017-08-05T01:01:38.994Z,21.30
2017-08-05T01:04:06.567Z,21.30
2017-08-05T01:06:34.147Z,21.30
2017-08-05T01:09:02.104Z,21.30
2017-08-05T01:11:29.685Z,21.20
2017-08-05T01:13:57.271Z,21.20
2017-08-05T01:16:24.877Z,21.20
2017-08-05T01:18:52.435Z,21.20
2017-08-05T01:21:20.023Z,21.20
2017-08-05T01:23:48.361Z,21.20
2017-08-05T01:26:16.241Z,21.20
2017-08-05T01:28:43.817Z,21.20
2017-08-05T01:31:11.674Z,21.10
2017-08-05T01:33:39.240Z,21.10
2017-08-05T01:36:06.863Z,21.10
2017-08-05T01:38:34.452Z,21.10
2017-08-05T01:41:02.090Z,21.10
2017-08-05T01:43:29.662Z,21.10
2017-08-05T01:45:57.222Z,21.00
2017-08-05T01:48:24.797Z,21.10
2017-08-05T01:50:52.384Z,21.00
2017-08-05T01:53:19.939Z,21.00
2017-08-05T01:55:48.300Z,21.00
2017-08-05T01:58:15.870Z,21.00
2017-08-05T02:00:44.226Z,21.10
2017-08-05T02:03:11.806Z,21.10
2017-08-05T02:05:40.161Z,21.20
2017-08-05T02:08:07.738Z,21.20
2017-08-05T02:10:36.383Z,21.20
2017-08-05T02:13:03.972Z,21.20
2017-08-05T02:15:31.583Z,21.20
2017-08-05T02:17:59.175Z,21.20
2017-08-05T02:20:26.761Z,21.20
2017-08-05T02:22:54.442Z,21.10
2017-08-05T02:25:22.041Z,21.10
2017-08-05T02:27:49.645Z,21.10
2017-08-05T02:30:17.996Z,21.10
2017-08-05T02:32:45.951Z,21.00
2017-08-05T02:35:13.530Z,21.10
2017-08-05T02:37:41.107Z,21.00
2017-08-05T02:40:08.693Z,21.10
2017-08-05T02:42:36.288Z,21.10
2017-08-05T02:45:03.885Z,21.00
2017-08-05T02:47:32.237Z,21.00
2017-08-05T02:50:00.201Z,20.90
2017-08-05T02:52:27.782Z,20.90
2017-08-05T02:54:56.120Z,20.90
2017-08-05T02:57:23.707Z,20.80
2017-08-05T02:59:51.291Z,20.80
2017-08-05T03:02:19.660Z,20.80
2017-08-05T03:04:48.030Z,20.80
2017-08-05T03:07:15.600Z,20.70
2017-08-05T03:09:43.944Z,20.70
2017-08-05T03:12:11.794Z,20.70
2017-08-05T03:14:39.397Z,20.70
2017-08-05T03:17:06.983Z,20.70
2017-08-05T03:19:34.566Z,20.70
2017-08-05T03:22:02.143Z,20.70
2017-08-05T03:24:29.720Z,20.70
2017-08-05T03:26:57.311Z,20.70
2017-08-05T03:29:25.234Z,20.70
2017-08-05T03:31:52.797Z,20.70
2017-08-05T03:34:20.360Z,20.70
2017-08-05T03:36:47.937Z,20.70
2017-08-05T03:39:15.516Z,20.70
2017-08-05T03:41:43.102Z,20.70
2017-08-05T03:44:10.673Z,20.70
2017-08-05T03:46:38.261Z,20.70
2017-08-05T03:49:06.603Z,20.60
2017-08-05T03:51:34.185Z,20.60
2017-08-05T03:54:01.746Z,20.50
2017-08-05T03:56:29.331Z,20.50
2017-08-05T03:58:57.674Z,20.40
2017-08-05T04:01:25.251Z,20.30
2017-08-05T04:03:53.601Z,20.30
2017-08-05T04:06:21.183Z,20.30
2017-08-05T04:08:48.761Z,20.20
2017-08-05T04:11:16.337Z,20.20
2017-08-05T04:13:44.282Z,20.20
2017-08-05T04:16:12.633Z,20.20
2017-08-05T04:18:40.254Z,20.20
2017-08-05T04:21:07.865Z,20.20
2017-08-05T04:23:35.458Z,20.20
2017-08-05T04:26:03.144Z,20.10
2017-08-05T04:28:30.720Z,20.10
2017-08-05T04:30:58.296Z,20.10
2017-08-05T04:33:25.885Z,20.10
2017-08-05T04:35:53.803Z,20.10
2017-08-05T04:38:21.371Z,20.10
2017-08-05T04:40:48.956Z,20.10
2017-08-05T04:43:16.581Z,20.10
2017-08-05T04:45:44.184Z,20.10
2017-08-05T04:48:12.802Z,20.20
2017-08-05T04:50:40.362Z,20.20
2017-08-05T04:53:07.944Z,20.20
2017-08-05T04:55:35.534Z,20.30
2017-08-05T04:58:03.872Z,20.40
2017-08-05T05:00:31.438Z,20.40
2017-08-05T05:02:59.049Z,20.50
2017-08-05T05:05:27.072Z,20.60
2017-08-05T05:07:54.645Z,20.70
2017-08-05T05:10:22.198Z,20.80
2017-08-05T05:12:49.774Z,20.90
2017-08-05T05:15:17.353Z,20.90
2017-08-05T05:17:44.924Z,21.00
2017-08-05T05:20:12.492Z,21.10
2017-08-05T05:22:40.078Z,21.20
2017-08-05T05:25:07.645Z,21.30
2017-08-05T05:27:35.761Z,21.40
2017-08-05T05:30:03.343Z,21.50
2017-08-05T05:32:31.912Z,21.50
2017-08-05T05:34:59.495Z,21.50
2017-08-05T05:37:27.041Z,21.60
2017-08-05T05:39:54.619Z,21.60
2017-08-05T05:42:22.186Z,21.60
2017-08-05T05:44:49.765Z,21.60
2017-08-05T05:47:17.328Z,21.70
2017-08-05T05:49:45.372Z,21.70
2017-08-05T05:52:12.943Z,21.90
2017-08-05T05:54:40.507Z,21.90
2017-08-05T05:57:08.086Z,21.90
2017-08-05T05:59:35.685Z,22.00
2017-08-05T06:02:03.265Z,22.10
2017-08-05T06:04:30.829Z,22.00
2017-08-05T06:06:58.701Z,22.00
2017-08-05T06:09:26.267Z,21.90
2017-08-05T06:11:53.829Z,21.80
2017-08-05T06:14:21.407Z,21.70
2017-08-05T06:16:49.729Z,21.80
2017-08-05T06:19:17.308Z,21.80
2017-08-05T06:21:44.880Z,21.80
2017-08-05T06:24:12.731Z,21.80
2017-08-05T06:26:40.298Z,21.80
2017-08-05T06:29:07.873Z,21.90
2017-08-05T06:31:35.505Z,21.90
2017-08-05T06:34:03.059Z,21.90
2017-08-05T06:36:30.664Z,22.00
2017-08-05T06:38:59.008Z,22.00
2017-08-05T06:41:26.871Z,22.00
2017-08-05T06:43:54.433Z,22.00
2017-08-05T06:46:21.994Z,22.10
2017-08-05T06:48:49.607Z,22.10
2017-08-05T06:51:17.174Z,22.20
2017-08-05T06:53:45.070Z,22.30
2017-08-05T06:56:12.653Z,22.40
2017-08-05T06:58:40.261Z,22.30
2017-08-05T07:01:07.844Z,22.30
2017-08-05T07:03:35.430Z,22.30
2017-08-05T07:06:03.011Z,22.40
2017-08-05T07:08:31.354Z,22.70
2017-08-05T07:10:58.947Z,22.70
2017-08-05T07:13:27.363Z,22.90
2017-08-05T07:15:54.946Z,22.80
2017-08-05T07:18:22.518Z,23.00
2017-08-05T07:20:50.130Z,23.10
2017-08-05T07:23:17.702Z,23.10
2017-08-05T07:25:45.324Z,23.20
2017-08-05T07:28:12.901Z,23.20
2017-08-05T07:30:40.485Z,23.30
2017-08-05T07:33:08.072Z,23.40
2017-08-05T07:35:36.005Z,23.50
2017-08-05T07:38:03.632Z,23.50
2017-08-05T07:40:31.221Z,23.50
2017-08-05T07:42:58.857Z,23.50
2017-08-05T07:45:26.466Z,23.50
2017-08-05T07:47:54.090Z,23.60
2017-08-05T07:50:21.704Z,23.60
2017-08-05T07:52:49.332Z,23.70
2017-08-05T07:55:16.916Z,23.80
2017-08-05T07:57:44.780Z,23.80
2017-08-05T08:00:12.372Z,23.90
2017-08-05T08:02:39.934Z,24.00
2017-08-05T08:05:08.285Z,24.10
2017-08-05T08:07:35.872Z,24.10
2017-08-05T08:10:03.469Z,24.20
2017-08-05T08:12:31.040Z,24.20
2017-08-05T08:14:59.388Z,24.20
2017-08-05T08:17:26.964Z,24.20
2017-08-05T08:19:54.572Z,24.30
2017-08-05T08:22:22.910Z,24.30
2017-08-05T08:24:50.945Z,24.30
2017-08-05T08:27:18.515Z,24.40
2017-08-05T08:29:46.113Z,24.40
2017-08-05T08:32:13.717Z,24.40
2017-08-05T08:34:41.326Z,24.50
2017-08-05T08:37:08.934Z,24.50
2017-08-05T08:39:36.551Z,24.60
2017-08-05T08:42:04.702Z,24.60
2017-08-05T08:44:32.290Z,24.70
2017-08-05T08:47:00.262Z,24.60
2017-08-05T08:49:27.873Z,24.60
2017-08-05T08:51:55.458Z,24.70
2017-08-05T08:54:23.932Z,24.70
2017-08-05T08:56:51.508Z,24.90
2017-08-05T08:59:19.100Z,25.00
2017-08-05T09:01:47.456Z,25.10
2017-08-05T09:04:15.358Z,25.10
2017-08-05T09:06:42.934Z,25.20
2017-08-05T09:09:10.509Z,25.30
2017-08-05T09:11:38.090Z,25.40
2017-08-05T09:14:05.663Z,25.40
2017-08-05T09:16:33.276Z,25.40
2017-08-05T09:19:00.851Z,25.50
2017-08-05T09:21:31.588Z,25.60
2017-08-05T09:23:59.177Z,25.60
2017-08-05T09:26:27.796Z,25.60
2017-08-05T09:28:55.372Z,25.60
2017-08-05T09:31:22.951Z,25.60
2017-08-05T09:33:50.552Z,25.60
2017-08-05T09:36:18.119Z,25.60
2017-08-05T09:38:46.025Z,25.60
2017-08-05T09:41:13.625Z,25.70
2017-08-05T09:43:41.188Z,25.70
2017-08-05T09:46:09.529Z,25.80
2017-08-05T09:48:37.082Z,25.80
2017-08-05T09:51:04.650Z,26.00
2017-08-05T09:53:32.247Z,26.20
2017-08-05T09:55:59.850Z,26.40
2017-08-05T09:58:27.428Z,26.50
2017-08-05T10:00:55.012Z,26.50
2017-08-05T10:03:23.363Z,26.70
2017-08-05T10:05:51.233Z,26.60
2017-08-05T10:08:18.815Z,26.70
2017-08-05T10:10:46.387Z,26.70
2017-08-05T10:13:13.982Z,26.70
2017-08-05T10:15:41.552Z,26.90
2017-08-05T10:18:09.170Z,26.90
2017-08-05T10:20:36.755Z,26.90
2017-08-05T10:23:04.386Z,27.00
2017-08-05T10:25:31.942Z,27.00
2017-08-05T10:28:00.683Z,27.30
2017-08-05T10:30:28.255Z,27.30
2017-08-05T10:32:56.654Z,27.50
2017-08-05T10:35:25.011Z,27.60
2017-08-05T10:37:52.627Z,27.60
2017-08-05T10:40:20.225Z,27.60
2017-08-05T10:42:47.815Z,27.70
2017-08-05T10:45:15.431Z,27.80
2017-08-05T10:47:43.015Z,27.70
2017-08-05T10:50:10.977Z,27.60
2017-08-05T10:52:38.607Z,27.60
2017-08-05T10:55:06.180Z,27.60
2017-08-05T10:57:33.781Z,27.80
2017-08-05T11:00:01.375Z,28.20
2017-08-05T11:02:28.990Z,28.40
2017-08-05T11:04:57.367Z,28.60
2017-08-05T11:07:24.960Z,28.60
2017-08-05T11:09:52.567Z,28.60
2017-08-05T11:12:20.619Z,28.20
2017-08-05T11:14:48.197Z,28.20
2017-08-05T11:17:15.832Z,28.30
2017-08-05T11:19:43.451Z,28.60
2017-08-05T11:22:11.025Z,28.70
2017-08-05T11:24:38.670Z,28.70
2017-08-05T11:27:07.060Z,28.90
2017-08-05T11:29:34.676Z,28.80
2017-08-05T11:32:02.279Z,28.70
2017-08-05T11:34:29.959Z,28.70
2017-08-05T11:36:57.606Z,28.80
2017-08-05T11:39:25.262Z,28.80
2017-08-05T11:41:53.030Z,28.90
2017-08-05T11:44:20.683Z,28.90
2017-08-05T11:46:48.268Z,28.80
2017-08-05T11:49:15.867Z,28.70
2017-08-05T11:51:43.848Z,28.60
2017-08-05T11:54:12.187Z,28.40
2017-08-05T11:56:39.794Z,28.40
2017-08-05T11:59:08.142Z,28.80
2017-08-05T12:01:35.818Z,28.90
2017-08-05T12:04:03.566Z,29.00
2017-08-05T12:06:31.194Z,28.80
2017-08-05T12:08:58.785Z,28.60
2017-08-05T12:11:26.374Z,28.50
2017-08-05T12:13:54.226Z,28.30
2017-08-05T12:16:22.567Z,28.70
2017-08-05T12:18:50.148Z,28.70
2017-08-05T12:21:17.729Z,29.10
2017-08-05T12:23:46.072Z,29.50
2017-08-05T12:26:13.645Z,29.40
2017-08-05T12:28:41.248Z,29.40
2017-08-05T12:31:08.831Z,29.20
2017-08-05T12:33:36.418Z,28.80
2017-08-05T12:36:04.408Z,28.80
2017-08-05T12:38:32.019Z,28.90
2017-08-05T12:40:59.614Z,28.80
2017-08-05T12:43:27.200Z,28.70
2017-08-05T12:45:54.824Z,28.70
2017-08-05T12:48:22.434Z,28.90
2017-08-05T12:50:50.019Z,29.30
2017-08-05T12:53:17.909Z,29.20
2017-08-05T12:55:45.809Z,29.00
2017-08-05T12:58:13.484Z,28.80
2017-08-05T13:00:41.130Z,28.90
2017-08-05T13:03:08.753Z,28.80
2017-08-05T13:05:36.352Z,28.70
2017-08-05T13:08:04.270Z,28.80
2017-08-05T13:10:31.884Z,29.00
2017-08-05T13:12:59.504Z,29.30
2017-08-05T13:15:27.118Z,29.30
2017-08-05T13:17:54.838Z,29.30
2017-08-05T13:20:22.494Z,29.60
2017-08-05T13:22:50.087Z,29.50
2017-08-05T13:25:17.713Z,29.40
2017-08-05T13:27:45.294Z,29.60
2017-08-05T13:30:13.215Z,29.80
2017-08-05T13:32:40.791Z,29.70
2017-08-05T13:35:08.364Z,29.60
2017-08-05T13:37:35.965Z,29.90
2017-08-05T13:40:03.624Z,30.00
2017-08-05T13:42:31.217Z,29.70
2017-08-05T13:44:58.805Z,29.50
2017-08-05T13:47:27.482Z,29.60
2017-08-05T13:49:55.858Z,29.50
2017-08-05T13:52:23.494Z,29.50
2017-08-05T13:54:51.134Z,29.50
2017-08-05T13:57:18.772Z,29.60
2017-08-05T13:59:46.359Z,29.30
2017-08-05T14:02:13.981Z,29.40
2017-08-05T14:04:42.365Z,29.90
2017-08-05T14:07:09.942Z,29.80
2017-08-05T14:09:37.562Z,30.10
2017-08-05T14:12:05.929Z,30.30
2017-08-05T14:14:33.906Z,30.20
2017-08-05T14:17:01.495Z,30.50
2017-08-05T14:19:29.056Z,30.80
2017-08-05T14:21:56.662Z,31.20
2017-08-05T14:24:24.240Z,31.40
2017-08-05T14:26:51.833Z,31.60
2017-08-05T14:29:19.418Z,31.60
2017-08-05T14:31:47.274Z,31.60
2017-08-05T14:34:14.867Z,31.10
2017-08-05T14:36:42.478Z,31.50
2017-08-05T14:39:10.096Z,32.70
2017-08-05T14:41:37.790Z,33.30
2017-08-05T14:44:05.385Z,34.30
2017-08-05T14:46:32.987Z,35.10
2017-08-05T14:49:00.639Z,35.80
2017-08-05T14:51:28.235Z,36.30
2017-08-05T14:53:56.152Z,36.70
2017-08-05T14:56:24.521Z,36.60
2017-08-05T14:58:52.104Z,36.60
2017-08-05T15:01:19.702Z,34.00
2017-08-05T15:03:47.280Z,33.10
2017-08-05T15:06:14.918Z,32.60
2017-08-05T15:08:42.484Z,32.30
2017-08-05T15:11:10.109Z,33.40
2017-08-05T15:13:37.727Z,34.90
2017-08-05T15:16:05.791Z,35.50
2017-08-05T15:18:33.358Z,35.00
2017-08-05T15:21:00.997Z,36.30
2017-08-05T15:23:28.626Z,37.70
2017-08-05T15:25:56.184Z,38.60
2017-08-05T15:28:23.775Z,38.20
2017-08-05T15:30:51.345Z,38.40
2017-08-05T15:33:18.952Z,38.70
2017-08-05T15:35:47.390Z,39.80
2017-08-05T15:38:15.387Z,40.70
2017-08-05T15:40:42.965Z,39.80
2017-08-05T15:43:10.533Z,39.20
2017-08-05T15:45:38.159Z,39.60
2017-08-05T15:48:05.733Z,40.50
2017-08-05T15:50:33.359Z,40.70
2017-08-05T15:53:00.939Z,41.90
2017-08-05T15:55:28.533Z,42.30
2017-08-05T15:57:56.098Z,41.40
2017-08-05T16:00:23.692Z,40.50
2017-08-05T16:02:51.252Z,39.70
2017-08-05T16:05:20.014Z,38.80
2017-08-05T16:07:47.603Z,38.80
2017-08-05T16:10:15.198Z,38.20
2017-08-05T16:12:42.791Z,37.20
2017-08-05T16:15:10.441Z,36.70
2017-08-05T16:17:38.136Z,36.30
2017-08-05T16:20:05.798Z,36.60
2017-08-05T16:22:34.173Z,35.10
2017-08-05T16:25:02.445Z,35.10
2017-08-05T16:27:30.797Z,35.10
2017-08-05T16:29:58.401Z,35.00
2017-08-05T16:32:26.309Z,34.20
2017-08-05T16:34:53.909Z,33.00
2017-08-05T16:37:21.512Z,32.00
2017-08-05T16:39:49.122Z,31.10
2017-08-05T16:42:17.473Z,30.40
2017-08-05T16:44:45.061Z,30.30
2017-08-05T16:47:13.392Z,30.30
2017-08-05T16:49:41.795Z,30.30
2017-08-05T16:52:09.390Z,29.90
2017-08-05T16:54:37.330Z,29.50
2017-08-05T16:57:05.698Z,29.10
2017-08-05T16:59:33.318Z,29.00
2017-08-05T17:02:00.901Z,28.90
2017-08-05T17:04:28.464Z,28.80
2017-08-05T17:06:56.046Z,28.70
2017-08-05T17:09:23.633Z,28.60
2017-08-05T17:11:51.227Z,28.60
2017-08-05T17:14:18.813Z,28.60
2017-08-05T17:16:46.957Z,28.40
2017-08-05T17:19:14.551Z,28.30
2017-08-05T17:21:42.189Z,28.30
2017-08-05T17:24:09.843Z,28.30
2017-08-05T17:26:37.420Z,28.30
2017-08-05T17:29:05.027Z,28.30
2017-08-05T17:31:32.602Z,28.40
2017-08-05T17:34:00.530Z,28.30
2017-08-05T17:36:28.942Z,28.10
2017-08-05T17:38:57.147Z,28.10
2017-08-05T17:41:24.715Z,28.00
2017-08-05T17:43:52.305Z,27.90
2017-08-05T17:46:21.038Z,27.60
2017-08-05T17:48:48.621Z,27.60
2017-08-05T17:51:16.200Z,27.50
2017-08-05T17:53:44.573Z,27.40
2017-08-05T17:56:12.224Z,27.40
2017-08-05T17:58:40.594Z,27.40
2017-08-05T18:01:08.185Z,27.40
2017-08-05T18:03:36.539Z,27.40
2017-08-05T18:06:04.568Z,27.40
2017-08-05T18:08:32.150Z,27.40
2017-08-05T18:10:59.791Z,27.30
2017-08-05T18:13:27.584Z,27.30
2017-08-05T18:15:55.237Z,27.20
2017-08-05T18:18:22.845Z,27.10
2017-08-05T18:20:50.417Z,27.00
2017-08-05T18:23:18.032Z,26.90
2017-08-05T18:25:45.627Z,26.80
2017-08-05T18:28:13.219Z,26.80
2017-08-05T18:30:40.834Z,26.70
2017-08-05T18:33:09.468Z,26.70
2017-08-05T18:35:37.136Z,26.70
2017-08-05T18:38:04.738Z,26.70
2017-08-05T18:40:32.310Z,26.60
2017-08-05T18:43:00.090Z,26.50
2017-08-05T18:45:27.680Z,26.40
2017-08-05T18:47:55.278Z,26.20
2017-08-05T18:50:24.394Z,26.10
2017-08-05T18:52:52.299Z,26.10
2017-08-05T18:55:20.304Z,26.00
2017-08-05T18:57:48.726Z,26.00
2017-08-05T19:00:16.366Z,26.00
2017-08-05T19:02:43.977Z,26.00
2017-08-05T19:05:11.612Z,25.90
2017-08-05T19:07:39.914Z,25.80
2017-08-05T19:10:08.288Z,25.70
2017-08-05T19:12:36.336Z,25.70
2017-08-05T19:15:03.899Z,25.70
2017-08-05T19:17:31.479Z,25.60
2017-08-05T19:19:59.060Z,25.60
2017-08-05T19:22:27.396Z,25.50
2017-08-05T19:24:54.982Z,25.50
2017-08-05T19:27:22.561Z,25.50
2017-08-05T19:29:50.919Z,24.90
2017-08-05T19:32:18.665Z,24.90
2017-08-05T19:34:46.270Z,24.00
2017-08-05T19:37:13.864Z,23.20
2017-08-05T19:39:41.757Z,22.70
2017-08-05T19:42:09.532Z,22.40
2017-08-05T19:44:38.085Z,22.20
2017-08-05T19:47:05.715Z,22.20
2017-08-05T19:49:33.291Z,22.20
2017-08-05T19:52:00.908Z,22.20
2017-08-05T19:54:28.524Z,22.20
2017-08-05T19:56:56.124Z,22.20
2017-08-05T19:59:24.462Z,22.20
2017-08-05T20:01:52.333Z,22.20
2017-08-05T20:04:19.913Z,22.20
2017-08-05T20:06:48.330Z,22.10
2017-08-05T20:09:15.954Z,22.10
2017-08-05T20:11:44.343Z,22.20
2017-08-05T20:14:12.689Z,22.30
2017-08-05T20:16:40.291Z,22.20
2017-08-05T20:19:07.903Z,22.20
2017-08-05T20:21:35.478Z,22.20
2017-08-05T20:24:03.341Z,22.10
2017-08-05T20:26:30.926Z,22.10
2017-08-05T20:28:59.458Z,22.10
2017-08-05T20:31:27.056Z,22.10
2017-08-05T20:33:55.407Z,22.10
2017-08-05T20:36:23.070Z,22.10
2017-08-05T20:38:50.736Z,22.00
2017-08-05T20:41:18.322Z,22.00
2017-08-05T20:43:46.665Z,21.80
2017-08-05T20:46:14.287Z,21.70
2017-08-05T20:48:41.982Z,21.70
2017-08-05T20:51:09.596Z,21.50
2017-08-05T20:53:37.255Z,21.40
2017-08-05T20:56:04.886Z,21.30
2017-08-05T20:58:32.475Z,21.10
2017-08-05T21:01:00.095Z,21.00
2017-08-05T21:03:27.762Z,20.90
2017-08-05T21:05:56.105Z,20.80
2017-08-05T21:08:23.758Z,20.80
2017-08-05T21:10:51.322Z,20.70
2017-08-05T21:13:19.301Z,20.70
2017-08-05T21:15:46.894Z,20.70
2017-08-05T21:18:14.473Z,20.70
2017-08-05T21:20:42.083Z,20.80
2017-08-05T21:23:09.673Z,20.80
2017-08-05T21:25:37.323Z,20.80
2017-08-05T21:28:04.904Z,20.80
2017-08-05T21:30:33.245Z,20.80
2017-08-05T21:33:00.820Z,20.80
2017-08-05T21:35:28.445Z,20.80
2017-08-05T21:37:56.046Z,20.80
2017-08-05T21:40:23.990Z,20.90
2017-08-05T21:42:51.572Z,20.90
2017-08-05T21:45:19.166Z,21.00
2017-08-05T21:47:46.815Z,21.00
2017-08-05T21:50:14.435Z,21.00
2017-08-05T21:52:42.046Z,21.00
2017-08-05T21:55:09.714Z,20.90
2017-08-05T21:57:37.393Z,20.90
2017-08-05T22:00:04.975Z,20.90
2017-08-05T22:02:32.568Z,20.90
2017-08-05T22:05:00.906Z,20.90
2017-08-05T22:07:28.501Z,20.90
2017-08-05T22:09:56.079Z,20.90
2017-08-05T22:12:23.690Z,20.80
2017-08-05T22:14:51.315Z,20.80
2017-08-05T22:17:18.877Z,20.70
2017-08-05T22:19:46.478Z,20.60
2017-08-05T22:22:14.068Z,20.50
2017-08-05T22:24:43.343Z,20.40
2017-08-05T22:27:10.953Z,20.40
2017-08-05T22:29:38.566Z,20.30
2017-08-05T22:32:06.143Z,20.30
2017-08-05T22:34:34.509Z,20.20
2017-08-05T22:37:02.252Z,20.20
2017-08-05T22:39:29.856Z,20.10
2017-08-05T22:41:57.446Z,20.10
2017-08-05T22:44:25.019Z,20.00
2017-08-05T22:46:52.601Z,20.00
2017-08-05T22:49:20.336Z,20.00
2017-08-05T22:51:48.234Z,19.90
2017-08-05T22:54:15.825Z,19.90
2017-08-05T22:56:43.414Z,19.90
2017-08-05T22:59:10.998Z,19.90
2017-08-05T23:01:38.627Z,19.80
2017-08-05T23:04:06.290Z,19.80
2017-08-05T23:06:33.885Z,19.70
2017-08-05T23:09:01.468Z,19.70
2017-08-05T23:11:29.406Z,19.80
2017-08-05T23:13:57.363Z,19.80
2017-08-05T23:16:24.950Z,19.70
2017-08-05T23:18:53.342Z,19.80
2017-08-05T23:21:21.005Z,19.70
2017-08-05T23:23:49.353Z,19.90
2017-08-05T23:26:17.313Z,19.80
2017-08-05T23:28:44.882Z,19.80
2017-08-05T23:31:12.466Z,19.80
2017-08-05T23:33:40.843Z,19.80
2017-08-05T23:36:09.204Z,19.70
2017-08-05T23:38:36.820Z,19.70
2017-08-05T23:41:04.390Z,19.70
2017-08-05T23:43:32.269Z,19.60
2017-08-05T23:45:59.885Z,19.50
2017-08-05T23:48:27.460Z,19.40
2017-08-05T23:50:55.561Z,19.30
2017-08-05T23:53:23.149Z,19.20
2017-08-05T23:55:50.782Z,19.20
2017-08-05T23:58:18.355Z,19.10
